< < Back
Terminal Aerodrome Forecast


Current Version              Previous Versions:   1  2  3  4  5  6  7  8  9  

Terminal Aerodrome Forecast

745
FTUS44 KBMX 282332
TAFMGM
TAF
KMGM 282332Z 2900/2924 22007KT P6SM VCTS SCT060CB
     FM290200 25003KT P6SM FEW100
     FM291700 25005KT P6SM SCT040
     FM291900 25007KT P6SM VCTS SCT050CB=

Latest METAR

411
SAUS80 KWBC 292300
MTRMGM
METAR KMGM 292253Z 31008KT 10SM FEW040 BKN075 BKN090 32/22 A2996 RMK AO2
SLP143 T03170217


USA.gov is the U.S. government's official web portal to all federal, state and local government web resources and services.